• Join FlightAware (Why Join?)
  • Login
  • US Flag 
03:37AM EST


 

Airport Tracker/Info


-or-


 

Live Flight TrackerFlight Track Log ✈ CTL15 ✈ 11-Jul-2013 ✈ KMGY - KBKL

Flight Track Log - Related Links

Times and Time Zones

All times are in EDT time to prevent confusion due to time zone crossing. See the CTL15 flight status page for this flight to view local times or setup timezone preferences in your user account.

Time Position Orientation Groundspeed Altitude Reporting Facility
EDT Latitude Longitude Course Direction KTS MPH feet Rate Location/Type
07:55PM 39.6481 -84.1564 53° Northeast 130 150 3,000  Level Indianapolis Center
07:56PM 39.6636 -84.1292 53° Northeast 119 137 3,900 840 Climbing Indianapolis Center
07:57PM 39.6878 -84.0981 45° Northeast 117 135 4,600 720 Climbing Indianapolis Center
07:58PM 39.7125 -84.0642 47° Northeast 123 142 5,400 600 Climbing Indianapolis Center
07:59PM 39.7367 -84.0331 45° Northeast 131 151 5,900 540 Climbing Indianapolis Center
08:00PM 39.7658 -83.9972 43° Northeast 139 160 6,500 540 Climbing Indianapolis Center
08:01PM 39.7967 -83.9619 41° Northeast 144 166 7,000 240 Climbing Indianapolis Center
08:02PM 39.8281 -83.9236 43° Northeast 163 188 7,100  Climbing Indianapolis Center
08:03PM 39.8644 -83.8781 44° Northeast 175 201 7,100  Level Indianapolis Center
08:04PM 39.9003 -83.8353 42° Northeast 176 203 7,100  Level Indianapolis Center
08:05PM 39.9344 -83.7892 46° Northeast 173 199 7,100  Level Indianapolis Center
08:06PM 39.9703 -83.7461 43° Northeast 174 200 7,100  Level Indianapolis Center
08:07PM 40.0025 -83.6997 48° Northeast 173 199 7,100  Level Indianapolis Center
08:08PM 40.0386 -83.6542 44° Northeast 172 198 7,100  Level Indianapolis Center
08:09PM 40.0706 -83.6075 48° Northeast 173 199 7,100  Level Indianapolis Center
08:10PM 40.1047 -83.5614 46° Northeast 171 197 7,100  Level Indianapolis Center
08:11PM 40.1386 -83.5178 45° Northeast 171 197 7,100  Level Indianapolis Center
08:12PM 40.1700 -83.4764 45° Northeast 163 188 7,100  Level Indianapolis Center
08:13PM 40.2017 -83.4325 47° Northeast 163 188 7,100 -60 Level Indianapolis Center
08:14PM 40.2331 -83.3911 45° Northeast 159 183 7,000  Descending Indianapolis Center
08:15PM 40.2647 -83.3469 47° Northeast 159 183 7,100  Climbing Indianapolis Center
08:16PM 40.2961 -83.3056 45° Northeast 156 180 7,000 -120 Descending Indianapolis Center
08:16PM 40.3083 -83.2903 44° Northeast 159 183 7,000 60 Level Indianapolis Center
08:17PM 40.3403 -83.2511 43° Northeast 156 180 7,100  Climbing Indianapolis Center
08:18PM 40.3719 -83.2117 43° Northeast 154 177 7,100  Level Indianapolis Center
08:19PM 40.4047 -83.1756 40° Northeast 153 176 7,100  Level Indianapolis Center
08:20PM 40.4433 -83.1306 42° Northeast 156 180 7,100  Level Indianapolis Center
08:21PM 40.4744 -83.0894 45° Northeast 156 180 7,100  Level Indianapolis Center
08:22PM 40.5106 -83.0586 33° Northeast 154 177 7,100  Level Indianapolis Center
08:24PM 40.5489 -83.0311 29° Northeast 153 176 7,100  Level Indianapolis Center
08:25PM 40.5842 -82.9997 34° Northeast 153 176 7,100  Level Indianapolis Center
08:26PM 40.6203 -82.9678 34° Northeast 153 176 7,100  Level Indianapolis Center
08:27PM 40.6578 -82.9378 31° Northeast 156 180 7,100  Level Indianapolis Center
08:28PM 40.6942 -82.9081 32° Northeast 154 177 7,100  Level Indianapolis Center
08:29PM 40.7322 -82.8792 30° Northeast 155 178 7,100  Level Indianapolis Center
08:30PM 40.7697 -82.8500 30° Northeast 155 178 7,100  Level Indianapolis Center
08:31PM 40.8067 -82.8181 33° Northeast 156 180 7,100  Level Indianapolis Center